createdAt,value
2016-12-22T00:00:00.832Z,7
2016-12-22T00:00:26.949Z,6.95
2016-12-22T00:00:53.053Z,6.97
2016-12-22T00:01:19.166Z,6.92
2016-12-22T00:01:45.295Z,6.93
2016-12-22T00:02:11.399Z,6.93
2016-12-22T00:02:37.514Z,6.82
2016-12-22T00:03:03.626Z,6.84
2016-12-22T00:03:29.747Z,6.85
2016-12-22T00:03:55.865Z,6.78
2016-12-22T00:04:21.966Z,6.64
2016-12-22T00:04:48.080Z,6.75
2016-12-22T00:05:14.204Z,6.72
2016-12-22T00:05:40.310Z,6.59
2016-12-22T00:06:06.429Z,6.72
2016-12-22T00:06:32.549Z,6.6
2016-12-22T00:06:58.657Z,6.67
2016-12-22T00:07:24.760Z,6.69
2016-12-22T00:07:50.881Z,6.6
2016-12-22T00:08:17.003Z,6.64
2016-12-22T00:08:43.126Z,6.57
2016-12-22T00:09:09.235Z,6.59
2016-12-22T00:09:35.343Z,6.74
2016-12-22T00:10:01.467Z,6.7
2016-12-22T00:10:27.575Z,6.6
2016-12-22T00:10:53.684Z,6.66
2016-12-22T00:11:19.805Z,6.57
2016-12-22T00:11:45.918Z,6.66
2016-12-22T00:12:12.016Z,6.74
2016-12-22T00:12:38.144Z,6.67
2016-12-22T00:13:04.262Z,6.67
2016-12-22T00:13:30.372Z,6.63
2016-12-22T00:13:56.477Z,6.63
2016-12-22T00:14:22.582Z,6.56
2016-12-22T00:14:48.707Z,6.69
2016-12-22T00:15:14.815Z,6.72
2016-12-22T00:15:40.947Z,6.66
2016-12-22T00:16:07.073Z,6.59
2016-12-22T00:16:33.186Z,6.66
2016-12-22T00:16:59.297Z,6.74
2016-12-22T00:17:25.417Z,6.59
2016-12-22T00:17:51.536Z,6.72
2016-12-22T00:18:17.634Z,6.67
2016-12-22T00:18:43.754Z,6.6
2016-12-22T00:19:09.870Z,6.59
2016-12-22T00:19:35.974Z,6.59
2016-12-22T00:20:02.092Z,6.63
2016-12-22T00:20:28.208Z,6.6
2016-12-22T00:20:54.315Z,6.6
2016-12-22T00:21:20.448Z,6.54
2016-12-22T00:21:46.573Z,6.42
2016-12-22T00:22:12.684Z,6.45
2016-12-22T00:22:38.792Z,6.49
2016-12-22T00:23:04.913Z,6.38
2016-12-22T00:23:31.030Z,6.45
2016-12-22T00:23:57.132Z,6.48
2016-12-22T00:24:23.248Z,6.46
2016-12-22T00:24:49.357Z,6.41
2016-12-22T00:25:15.484Z,6.54
2016-12-22T00:25:41.592Z,6.57
2016-12-22T00:26:07.698Z,6.51
2016-12-22T00:26:33.817Z,6.62
2016-12-22T00:26:59.933Z,6.48
2016-12-22T00:27:26.039Z,6.45
2016-12-22T00:27:52.159Z,6.48
2016-12-22T00:28:18.276Z,6.45
2016-12-22T00:28:44.386Z,6.45
2016-12-22T00:29:10.496Z,6.39
2016-12-22T00:29:36.623Z,6.46
2016-12-22T00:30:02.728Z,6.42
2016-12-22T00:30:28.843Z,6.52
2016-12-22T00:30:55.104Z,6.35
2016-12-22T00:31:21.220Z,6.42
2016-12-22T00:31:47.340Z,6.39
2016-12-22T00:32:13.442Z,6.31
2016-12-22T00:32:39.556Z,6.33
2016-12-22T00:33:05.676Z,6.39
2016-12-22T00:33:31.784Z,6.33
2016-12-22T00:33:57.899Z,6.35
2016-12-22T00:34:24.025Z,6.35
2016-12-22T00:34:50.130Z,6.41
2016-12-22T00:35:16.234Z,6.42
2016-12-22T00:35:42.359Z,6.39
2016-12-22T00:36:08.472Z,6.39
2016-12-22T00:36:34.597Z,6.33
2016-12-22T00:37:00.701Z,6.35
2016-12-22T00:37:26.809Z,6.38
2016-12-22T00:37:52.936Z,6.28
2016-12-22T00:38:19.044Z,6.27
2016-12-22T00:38:45.149Z,6.28
2016-12-22T00:39:11.269Z,6.26
2016-12-22T00:39:37.383Z,6.39
2016-12-22T00:40:03.524Z,6.44
2016-12-22T00:40:29.646Z,6.39
2016-12-22T00:40:55.766Z,6.39
2016-12-22T00:41:21.867Z,6.42
2016-12-22T00:41:47.987Z,6.36
2016-12-22T00:42:14.105Z,6.31
2016-12-22T00:42:40.204Z,6.3
2016-12-22T00:43:06.316Z,6.3
2016-12-22T00:43:32.437Z,6.19
2016-12-22T00:43:58.543Z,6.3
2016-12-22T00:44:24.659Z,6.3
2016-12-22T00:44:50.774Z,6.35
2016-12-22T00:45:16.886Z,6.35
2016-12-22T00:45:42.990Z,6.35
2016-12-22T00:46:09.120Z,6.22
2016-12-22T00:46:35.229Z,6.26
2016-12-22T00:47:01.348Z,6.26
2016-12-22T00:47:27.483Z,6.33
2016-12-22T00:47:53.589Z,6.24
2016-12-22T00:48:19.716Z,6.19
2016-12-22T00:48:45.821Z,6.16
2016-12-22T00:49:11.926Z,6.12
2016-12-22T00:49:38.050Z,6.12
2016-12-22T00:50:04.164Z,6.14
2016-12-22T00:50:30.277Z,6.07
2016-12-22T00:50:56.394Z,6.16
2016-12-22T00:51:22.511Z,6.14
2016-12-22T00:51:48.611Z,6.17
2016-12-22T00:52:14.735Z,6.28
2016-12-22T00:52:40.837Z,6.28
2016-12-22T00:53:06.962Z,6.31
2016-12-22T00:53:33.071Z,6.31
2016-12-22T00:53:59.171Z,6.27
2016-12-22T00:54:25.286Z,6.31
2016-12-22T00:54:51.406Z,6.26
2016-12-22T00:55:17.509Z,6.28
2016-12-22T00:55:43.629Z,6.24
2016-12-22T00:56:09.746Z,6.26
2016-12-22T00:56:35.854Z,6.26
2016-12-22T00:57:01.964Z,6.35
2016-12-22T00:57:28.090Z,6.28
2016-12-22T00:57:54.193Z,6.33
2016-12-22T00:58:20.318Z,6.3
2016-12-22T00:58:46.423Z,6.33
2016-12-22T00:59:12.538Z,6.3
2016-12-22T00:59:38.662Z,6.33
2016-12-22T01:00:04.769Z,6.35
2016-12-22T01:00:30.911Z,6.33
2016-12-22T01:00:57.036Z,6.28
2016-12-22T01:01:23.141Z,6.28
2016-12-22T01:01:49.257Z,6.24
2016-12-22T01:02:15.377Z,6.3
2016-12-22T01:02:41.486Z,6.3
2016-12-22T01:03:07.589Z,6.38
2016-12-22T01:03:33.716Z,6.3
2016-12-22T01:03:59.835Z,6.31
2016-12-22T01:04:25.938Z,6.3
2016-12-22T01:04:52.061Z,6.38
2016-12-22T01:05:18.177Z,6.3
2016-12-22T01:05:44.281Z,6.35
2016-12-22T01:06:10.399Z,6.33
2016-12-22T01:06:36.520Z,6.24
2016-12-22T01:07:02.627Z,6.22
2016-12-22T01:07:28.739Z,6.27
2016-12-22T01:07:54.861Z,6.31
2016-12-22T01:08:20.963Z,6.27
2016-12-22T01:08:47.072Z,6.27
2016-12-22T01:09:13.186Z,6.3
2016-12-22T01:09:39.300Z,6.35
2016-12-22T01:10:05.419Z,6.27
2016-12-22T01:10:31.521Z,6.35
2016-12-22T01:10:57.638Z,6.35
2016-12-22T01:11:23.762Z,6.39
2016-12-22T01:11:49.862Z,6.31
2016-12-22T01:12:15.974Z,6.41
2016-12-22T01:12:42.091Z,6.28
2016-12-22T01:13:08.204Z,6.35
2016-12-22T01:13:34.303Z,6.35
2016-12-22T01:14:00.432Z,6.39
2016-12-22T01:14:26.543Z,6.39
2016-12-22T01:14:52.666Z,6.35
2016-12-22T01:15:18.770Z,6.3
2016-12-22T01:15:44.886Z,6.22
2016-12-22T01:16:11.001Z,6.35
2016-12-22T01:16:37.141Z,6.3
2016-12-22T01:17:03.245Z,6.41
2016-12-22T01:17:29.373Z,6.46
2016-12-22T01:17:55.480Z,6.36
2016-12-22T01:18:21.590Z,6.38
2016-12-22T01:18:47.708Z,6.42
2016-12-22T01:19:13.831Z,6.35
2016-12-22T01:19:39.932Z,6.36
2016-12-22T01:20:06.050Z,6.3
2016-12-22T01:20:32.160Z,6.38
2016-12-22T01:20:58.278Z,6.35
2016-12-22T01:21:24.392Z,6.31
2016-12-22T01:21:50.499Z,6.2
2016-12-22T01:22:16.623Z,6.27
2016-12-22T01:22:42.732Z,6.28
2016-12-22T01:23:08.840Z,6.33
2016-12-22T01:23:34.962Z,6.19
2016-12-22T01:24:01.078Z,6.2
2016-12-22T01:24:27.182Z,6.26
2016-12-22T01:24:53.295Z,6.27
2016-12-22T01:25:19.421Z,6.26
2016-12-22T01:25:45.528Z,6.22
2016-12-22T01:26:11.648Z,6.24
2016-12-22T01:26:37.748Z,6.19
2016-12-22T01:27:03.869Z,6.26
2016-12-22T01:27:29.988Z,6.24
2016-12-22T01:27:56.095Z,6.24
2016-12-22T01:28:22.206Z,6.27
2016-12-22T01:28:48.326Z,6.33
2016-12-22T01:29:14.432Z,6.38
2016-12-22T01:29:40.544Z,6.33
2016-12-22T01:30:06.661Z,6.36
2016-12-22T01:30:32.770Z,6.39
2016-12-22T01:30:58.880Z,6.3
2016-12-22T01:31:24.993Z,6.39
2016-12-22T01:31:51.111Z,6.35
2016-12-22T01:32:17.237Z,6.31
2016-12-22T01:32:43.335Z,6.33
2016-12-22T01:33:09.447Z,6.35
2016-12-22T01:33:35.563Z,6.36
2016-12-22T01:34:01.676Z,6.28
2016-12-22T01:34:27.774Z,6.27
2016-12-22T01:34:53.898Z,6.26
2016-12-22T01:35:20.004Z,6.24
2016-12-22T01:35:46.113Z,6.2
2016-12-22T01:36:12.234Z,6.28
2016-12-22T01:36:38.353Z,6.33
2016-12-22T01:37:04.466Z,6.33
2016-12-22T01:37:30.575Z,6.35
2016-12-22T01:37:56.677Z,6.26
2016-12-22T01:38:22.805Z,6.31
2016-12-22T01:38:48.911Z,6.26
2016-12-22T01:39:15.022Z,6.27
2016-12-22T01:39:41.140Z,6.33
2016-12-22T01:40:07.252Z,6.3
2016-12-22T01:40:33.359Z,6.28
2016-12-22T01:40:59.477Z,6.31
2016-12-22T01:41:25.597Z,6.35
2016-12-22T01:41:51.701Z,6.24
2016-12-22T01:42:17.817Z,6.27
2016-12-22T01:42:43.919Z,6.31
2016-12-22T01:43:10.040Z,6.3
2016-12-22T01:43:36.157Z,6.27
2016-12-22T01:44:02.260Z,6.39
2016-12-22T01:44:28.379Z,6.39
2016-12-22T01:44:54.497Z,6.31
2016-12-22T01:45:20.600Z,6.35
2016-12-22T01:45:46.718Z,6.44
2016-12-22T01:46:12.842Z,6.46
2016-12-22T01:46:38.950Z,6.45
2016-12-22T01:47:05.065Z,6.36
2016-12-22T01:47:31.180Z,6.41
2016-12-22T01:47:57.290Z,6.45
2016-12-22T01:48:23.426Z,6.42
2016-12-22T01:48:49.554Z,6.42
2016-12-22T01:49:15.665Z,6.46
2016-12-22T01:49:41.769Z,6.49
2016-12-22T01:50:07.889Z,6.48
2016-12-22T01:50:34.003Z,6.45
2016-12-22T01:51:00.108Z,6.39
2016-12-22T01:51:26.228Z,6.45
2016-12-22T01:51:52.355Z,6.36
2016-12-22T01:52:18.456Z,6.27
2016-12-22T01:52:44.774Z,6.3
2016-12-22T01:53:10.895Z,6.35
2016-12-22T01:53:36.994Z,6.33
2016-12-22T01:54:03.118Z,6.28
2016-12-22T01:54:29.216Z,6.38
2016-12-22T01:54:55.339Z,6.3
2016-12-22T01:55:21.459Z,6.36
2016-12-22T01:55:47.564Z,6.39
2016-12-22T01:56:13.679Z,6.35
2016-12-22T01:56:39.803Z,6.42
2016-12-22T01:57:05.902Z,6.38
2016-12-22T01:57:32.013Z,6.41
2016-12-22T01:57:58.157Z,6.39
2016-12-22T01:58:24.266Z,6.35
2016-12-22T01:58:50.373Z,6.31
2016-12-22T01:59:16.492Z,6.38
2016-12-22T01:59:42.601Z,6.28
2016-12-22T02:00:08.725Z,6.38
2016-12-22T02:00:34.828Z,6.38
2016-12-22T02:01:00.946Z,6.3
2016-12-22T02:01:27.062Z,6.42
2016-12-22T02:01:53.170Z,6.44
2016-12-22T02:02:19.276Z,6.35
2016-12-22T02:02:45.403Z,6.44
2016-12-22T02:03:11.518Z,6.42
2016-12-22T02:03:37.624Z,6.35
2016-12-22T02:04:03.748Z,6.46
2016-12-22T02:04:29.857Z,6.44
2016-12-22T02:04:55.974Z,6.41
2016-12-22T02:05:22.082Z,6.45
2016-12-22T02:05:48.184Z,6.46
2016-12-22T02:06:14.311Z,6.44
2016-12-22T02:06:40.419Z,6.52
2016-12-22T02:07:06.528Z,6.51
2016-12-22T02:07:32.651Z,6.45
2016-12-22T02:07:58.793Z,6.46
2016-12-22T02:08:24.899Z,6.41
2016-12-22T02:08:51.014Z,6.44
2016-12-22T02:09:17.134Z,6.51
2016-12-22T02:09:43.243Z,6.54
2016-12-22T02:10:09.354Z,6.51
2016-12-22T02:10:35.459Z,6.51
2016-12-22T02:11:01.580Z,6.44
2016-12-22T02:11:27.701Z,6.41
2016-12-22T02:11:53.811Z,6.54
2016-12-22T02:12:19.925Z,6.54
2016-12-22T02:12:46.049Z,6.6
2016-12-22T02:13:12.148Z,6.63
2016-12-22T02:13:38.266Z,6.56
2016-12-22T02:14:04.393Z,6.48
2016-12-22T02:14:30.494Z,6.57
2016-12-22T02:14:56.608Z,6.6
2016-12-22T02:15:22.724Z,6.6
2016-12-22T02:15:48.836Z,6.54
2016-12-22T02:16:14.958Z,6.6
2016-12-22T02:16:41.052Z,6.56
2016-12-22T02:17:07.167Z,6.56
2016-12-22T02:17:33.294Z,6.54
2016-12-22T02:17:59.393Z,6.49
2016-12-22T02:18:25.535Z,6.49
2016-12-22T02:18:51.661Z,6.49
2016-12-22T02:19:17.768Z,6.51
2016-12-22T02:19:43.867Z,6.57
2016-12-22T02:20:09.994Z,6.57
2016-12-22T02:20:36.107Z,6.62
2016-12-22T02:21:02.214Z,6.6
2016-12-22T02:21:28.333Z,6.72
2016-12-22T02:21:54.445Z,6.69
2016-12-22T02:22:20.563Z,6.62
2016-12-22T02:22:46.673Z,6.67
2016-12-22T02:23:12.811Z,6.6
2016-12-22T02:23:38.937Z,6.63
2016-12-22T02:24:05.046Z,6.6
2016-12-22T02:24:31.151Z,6.56
2016-12-22T02:24:57.273Z,6.62
2016-12-22T02:25:23.389Z,6.54
2016-12-22T02:25:49.494Z,6.6
2016-12-22T02:26:15.614Z,6.56
2016-12-22T02:26:41.731Z,6.6
2016-12-22T02:27:07.841Z,6.57
2016-12-22T02:27:33.953Z,6.6
2016-12-22T02:28:00.053Z,6.54
2016-12-22T02:28:26.175Z,6.59
2016-12-22T02:28:52.286Z,6.52
2016-12-22T02:29:18.393Z,6.63
2016-12-22T02:29:44.509Z,6.62
2016-12-22T02:30:10.632Z,6.75
2016-12-22T02:30:36.732Z,6.59
2016-12-22T02:31:02.841Z,6.7
2016-12-22T02:31:28.965Z,6.67
2016-12-22T02:31:55.120Z,6.66
2016-12-22T02:32:21.237Z,6.6
2016-12-22T02:32:47.351Z,6.64
2016-12-22T02:33:13.458Z,6.56
2016-12-22T02:33:39.563Z,6.59
2016-12-22T02:34:05.686Z,6.62
2016-12-22T02:34:31.794Z,6.6
2016-12-22T02:34:57.903Z,6.59
2016-12-22T02:35:24.019Z,6.6
2016-12-22T02:35:50.136Z,6.72
2016-12-22T02:36:16.237Z,6.6
2016-12-22T02:36:42.360Z,6.74
2016-12-22T02:37:08.477Z,6.67
2016-12-22T02:37:34.583Z,6.7
2016-12-22T02:38:00.695Z,6.72
2016-12-22T02:38:26.807Z,6.72
2016-12-22T02:38:52.929Z,6.72
2016-12-22T02:39:19.040Z,6.81
2016-12-22T02:39:45.147Z,6.77
2016-12-22T02:40:11.295Z,6.77
2016-12-22T02:40:37.415Z,6.78
2016-12-22T02:41:03.518Z,6.74
2016-12-22T02:41:29.635Z,6.72
2016-12-22T02:41:55.758Z,6.72
2016-12-22T02:42:21.861Z,6.78
2016-12-22T02:42:47.974Z,6.72
2016-12-22T02:43:14.091Z,6.72
2016-12-22T02:43:40.199Z,6.74
2016-12-22T02:44:06.321Z,6.59
2016-12-22T02:44:32.425Z,6.57
2016-12-22T02:44:58.544Z,6.62
2016-12-22T02:45:24.659Z,6.69
2016-12-22T02:45:50.763Z,6.7
2016-12-22T02:46:16.872Z,6.77
2016-12-22T02:46:42.990Z,6.75
2016-12-22T02:47:09.099Z,6.62
2016-12-22T02:47:35.198Z,6.59
2016-12-22T02:48:01.324Z,6.72
2016-12-22T02:48:27.434Z,6.77
2016-12-22T02:48:53.542Z,6.69
2016-12-22T02:49:19.660Z,6.57
2016-12-22T02:49:45.767Z,6.56
2016-12-22T02:50:11.891Z,6.66
2016-12-22T02:50:38.002Z,6.63
2016-12-22T02:51:04.107Z,6.56
2016-12-22T02:51:30.234Z,6.69
2016-12-22T02:51:56.344Z,6.59
2016-12-22T02:52:22.503Z,6.7
2016-12-22T02:52:48.624Z,6.54
2016-12-22T02:53:14.743Z,6.45
2016-12-22T02:53:40.842Z,6.41
2016-12-22T02:54:06.960Z,6.39
2016-12-22T02:54:33.076Z,6.44
2016-12-22T02:54:59.187Z,6.48
2016-12-22T02:55:25.298Z,6.42
2016-12-22T02:55:51.408Z,6.46
2016-12-22T02:56:17.523Z,6.48
2016-12-22T02:56:43.639Z,6.52
2016-12-22T02:57:09.742Z,6.51
2016-12-22T02:57:35.861Z,6.51
2016-12-22T02:58:01.980Z,6.44
2016-12-22T02:58:28.084Z,6.42
2016-12-22T02:58:54.200Z,6.45
2016-12-22T02:59:20.323Z,6.38
2016-12-22T02:59:46.430Z,6.39
2016-12-22T03:00:12.538Z,6.44
2016-12-22T03:00:38.653Z,6.49
2016-12-22T03:01:04.770Z,6.56
2016-12-22T03:01:30.886Z,6.51
2016-12-22T03:01:56.989Z,6.48
2016-12-22T03:02:23.107Z,6.57
2016-12-22T03:02:49.228Z,6.52
2016-12-22T03:03:15.329Z,6.46
2016-12-22T03:03:41.441Z,6.46
2016-12-22T03:04:07.556Z,6.52
2016-12-22T03:04:33.663Z,6.56
2016-12-22T03:04:59.796Z,6.49
2016-12-22T03:05:25.920Z,6.52
2016-12-22T03:05:52.028Z,6.56
2016-12-22T03:06:18.145Z,6.45
2016-12-22T03:06:44.252Z,6.51
2016-12-22T03:07:10.364Z,6.46
2016-12-22T03:07:36.484Z,6.41
2016-12-22T03:08:02.593Z,6.41
2016-12-22T03:08:28.691Z,6.44
2016-12-22T03:08:54.817Z,6.42
2016-12-22T03:09:20.927Z,6.44
2016-12-22T03:09:47.036Z,6.46
2016-12-22T03:10:13.158Z,6.51
2016-12-22T03:10:39.271Z,6.49
2016-12-22T03:11:05.379Z,6.45
2016-12-22T03:11:31.495Z,6.49
2016-12-22T03:11:57.600Z,6.51
2016-12-22T03:12:23.723Z,6.48
2016-12-22T03:12:49.828Z,6.48
2016-12-22T03:13:15.932Z,6.52
2016-12-22T03:13:42.055Z,6.51
2016-12-22T03:14:08.177Z,6.42
2016-12-22T03:14:34.276Z,6.39
2016-12-22T03:15:00.389Z,6.36
2016-12-22T03:15:26.504Z,6.3
2016-12-22T03:15:52.612Z,6.41
2016-12-22T03:16:18.722Z,6.45
2016-12-22T03:16:44.845Z,6.39
2016-12-22T03:17:10.945Z,6.35
2016-12-22T03:17:37.061Z,6.3
2016-12-22T03:18:03.178Z,6.27
2016-12-22T03:18:29.291Z,6.22
2016-12-22T03:18:55.391Z,6.24
2016-12-22T03:19:21.520Z,6.24
2016-12-22T03:19:47.631Z,6.22
2016-12-22T03:20:13.737Z,6.24
2016-12-22T03:20:39.861Z,6.27
2016-12-22T03:21:05.971Z,6.24
2016-12-22T03:21:32.069Z,6.31
2016-12-22T03:21:58.192Z,6.35
2016-12-22T03:22:24.361Z,6.3
2016-12-22T03:22:50.468Z,6.35
2016-12-22T03:23:16.582Z,6.3
2016-12-22T03:23:42.689Z,6.33
2016-12-22T03:24:08.806Z,6.27
2016-12-22T03:24:34.923Z,6.28
2016-12-22T03:25:01.023Z,6.2
2016-12-22T03:25:27.142Z,6.24
2016-12-22T03:25:53.269Z,6.24
2016-12-22T03:26:19.369Z,6.24
2016-12-22T03:26:45.483Z,6.26
2016-12-22T03:27:11.604Z,6.28
2016-12-22T03:27:37.710Z,6.22
2016-12-22T03:28:03.821Z,6.2
2016-12-22T03:28:29.935Z,6.28
2016-12-22T03:28:56.056Z,6.26
2016-12-22T03:29:22.171Z,6.31
2016-12-22T03:29:48.273Z,6.28
2016-12-22T03:30:14.386Z,6.35
2016-12-22T03:30:40.512Z,6.35
2016-12-22T03:31:06.615Z,6.35
2016-12-22T03:31:32.728Z,6.48
2016-12-22T03:31:58.883Z,6.38
2016-12-22T03:32:24.990Z,6.36
2016-12-22T03:32:51.092Z,6.26
2016-12-22T03:33:17.216Z,6.28
2016-12-22T03:33:43.328Z,6.22
2016-12-22T03:34:09.442Z,6.28
2016-12-22T03:34:35.548Z,6.2
2016-12-22T03:35:01.665Z,6.39
2016-12-22T03:35:27.780Z,6.26
2016-12-22T03:35:53.890Z,6.28
2016-12-22T03:36:19.991Z,6.38
2016-12-22T03:36:46.122Z,6.27
2016-12-22T03:37:12.231Z,6.27
2016-12-22T03:37:38.331Z,6.26
2016-12-22T03:38:04.453Z,6.22
2016-12-22T03:38:30.572Z,6.31
2016-12-22T03:38:56.675Z,6.24
2016-12-22T03:39:22.793Z,6.14
2016-12-22T03:39:48.898Z,6.19
2016-12-22T03:40:15.017Z,6.3
2016-12-22T03:40:41.130Z,6.27
2016-12-22T03:41:07.237Z,6.24
2016-12-22T03:41:33.360Z,6.19
2016-12-22T03:41:59.474Z,6.17
2016-12-22T03:42:25.583Z,6.09
2016-12-22T03:42:51.702Z,6.12
2016-12-22T03:43:17.818Z,6.14
2016-12-22T03:43:43.923Z,6.19
2016-12-22T03:44:10.034Z,6.17
2016-12-22T03:44:36.159Z,6.14
2016-12-22T03:45:02.262Z,6.27
2016-12-22T03:45:28.372Z,6.28
2016-12-22T03:45:54.483Z,6.35
2016-12-22T03:46:20.601Z,6.28
2016-12-22T03:46:46.724Z,6.39
2016-12-22T03:47:12.830Z,6.3
2016-12-22T03:47:38.941Z,6.33
2016-12-22T03:48:05.061Z,6.31
2016-12-22T03:48:31.168Z,6.38
2016-12-22T03:48:57.285Z,6.3
2016-12-22T03:49:23.400Z,6.31
2016-12-22T03:49:49.511Z,6.22
2016-12-22T03:50:21.876Z,6.38
2016-12-22T03:50:48.000Z,6.38
2016-12-22T03:51:14.113Z,6.35
2016-12-22T03:51:40.232Z,6.27
2016-12-22T03:52:06.338Z,6.28
2016-12-22T03:52:32.448Z,6.33
2016-12-22T03:52:58.574Z,6.38
2016-12-22T03:53:24.681Z,6.35
2016-12-22T03:53:50.788Z,6.35
2016-12-22T03:54:16.915Z,6.28
2016-12-22T03:54:43.024Z,6.38
2016-12-22T03:55:09.131Z,6.36
2016-12-22T03:55:35.252Z,6.28
2016-12-22T03:56:01.364Z,6.22
2016-12-22T03:56:27.480Z,6.27
2016-12-22T03:56:53.592Z,6.24
2016-12-22T03:57:19.699Z,6.2
2016-12-22T03:57:45.822Z,6.27
2016-12-22T03:58:11.930Z,6.17
2016-12-22T03:58:38.030Z,6.2
2016-12-22T03:59:04.154Z,6.19
2016-12-22T03:59:30.269Z,6.26
2016-12-22T03:59:56.378Z,6.33
2016-12-22T04:00:22.496Z,6.22
2016-12-22T04:00:48.612Z,6.3
2016-12-22T04:01:14.713Z,6.26
2016-12-22T04:01:40.826Z,6.3
2016-12-22T04:02:06.943Z,6.22
2016-12-22T04:02:33.050Z,6.2
2016-12-22T04:02:59.165Z,6.27
2016-12-22T04:03:25.281Z,6.28
2016-12-22T04:03:51.394Z,6.14
2016-12-22T04:04:17.494Z,6.14
2016-12-22T04:04:43.627Z,6.22
2016-12-22T04:05:09.733Z,6.33
2016-12-22T04:05:35.841Z,6.27
2016-12-22T04:06:01.960Z,6.3
2016-12-22T04:06:28.079Z,6.28
2016-12-22T04:06:54.180Z,6.38
2016-12-22T04:07:20.296Z,6.24
2016-12-22T04:07:46.404Z,6.38
2016-12-22T04:08:12.528Z,6.33
2016-12-22T04:08:38.637Z,6.31
2016-12-22T04:09:04.743Z,6.31
2016-12-22T04:09:30.866Z,6.39
2016-12-22T04:09:56.981Z,6.31
2016-12-22T04:10:23.086Z,6.27
2016-12-22T04:10:49.208Z,6.3
2016-12-22T04:11:15.328Z,6.36
2016-12-22T04:11:41.430Z,6.27
2016-12-22T04:12:07.550Z,6.2
2016-12-22T04:12:33.670Z,6.3
2016-12-22T04:12:59.774Z,6.3
2016-12-22T04:13:25.890Z,6.24
2016-12-22T04:13:52.000Z,6.17
2016-12-22T04:14:18.115Z,6.28
2016-12-22T04:14:44.237Z,6.2
2016-12-22T04:15:10.335Z,6.19
2016-12-22T04:15:36.450Z,6.22
2016-12-22T04:16:02.569Z,6.24
2016-12-22T04:16:28.675Z,6.27
2016-12-22T04:16:54.788Z,6.26
2016-12-22T04:17:20.943Z,6.33
2016-12-22T04:17:47.056Z,6.38
2016-12-22T04:18:13.153Z,6.33
2016-12-22T04:18:39.269Z,6.27
2016-12-22T04:19:05.381Z,6.33
2016-12-22T04:19:31.497Z,6.3
2016-12-22T04:19:57.607Z,6.35
2016-12-22T04:20:23.716Z,6.24
2016-12-22T04:20:49.843Z,6.26
2016-12-22T04:21:15.947Z,6.24
2016-12-22T04:21:42.055Z,6.17
2016-12-22T04:22:08.185Z,6.26
2016-12-22T04:22:34.300Z,6.17
2016-12-22T04:23:00.401Z,6.05
2016-12-22T04:23:26.523Z,6.16
2016-12-22T04:23:52.640Z,6.11
2016-12-22T04:24:18.756Z,6.12
2016-12-22T04:24:44.861Z,6.16
2016-12-22T04:25:10.968Z,6.19
2016-12-22T04:25:37.096Z,6.14
2016-12-22T04:26:03.205Z,6.26
2016-12-22T04:26:29.313Z,6.16
2016-12-22T04:26:55.439Z,6.14
2016-12-22T04:27:21.559Z,6.16
2016-12-22T04:27:47.660Z,6.28
2016-12-22T04:28:13.806Z,6.17
2016-12-22T04:28:39.926Z,6.16
2016-12-22T04:29:06.029Z,6.22
2016-12-22T04:29:32.148Z,6.19
2016-12-22T04:29:58.254Z,6.17
2016-12-22T04:30:24.378Z,6.17
2016-12-22T04:30:50.488Z,6.28
2016-12-22T04:31:16.591Z,6.27
2016-12-22T04:31:42.709Z,6.22
2016-12-22T04:32:08.824Z,6.28
2016-12-22T04:32:34.925Z,6.14
2016-12-22T04:33:01.040Z,6.14
2016-12-22T04:33:27.167Z,6.27
2016-12-22T04:33:53.270Z,6.22
2016-12-22T04:34:19.384Z,6.24
2016-12-22T04:34:45.503Z,6.22
2016-12-22T04:35:11.610Z,6.28
2016-12-22T04:35:37.733Z,6.28
2016-12-22T04:36:03.832Z,6.35
2016-12-22T04:36:29.947Z,6.3
2016-12-22T04:36:56.067Z,6.35
2016-12-22T04:37:22.170Z,6.39
2016-12-22T04:37:48.284Z,6.27
2016-12-22T04:38:14.405Z,6.33
2016-12-22T04:38:40.513Z,6.24
2016-12-22T04:39:06.612Z,6.27
2016-12-22T04:39:32.740Z,6.27
2016-12-22T04:39:58.855Z,6.26
2016-12-22T04:40:24.962Z,6.27
2016-12-22T04:40:51.082Z,6.28
2016-12-22T04:41:17.190Z,6.31
2016-12-22T04:41:43.313Z,6.19
2016-12-22T04:42:09.421Z,6.17
2016-12-22T04:42:35.531Z,6.16
2016-12-22T04:43:01.649Z,6.28
2016-12-22T04:43:27.760Z,6.19
2016-12-22T04:43:53.861Z,6.19
2016-12-22T04:44:19.986Z,6.14
2016-12-22T04:44:46.100Z,6.12
2016-12-22T04:45:12.208Z,6.17
2016-12-22T04:45:38.320Z,6.17
2016-12-22T04:46:04.441Z,6.2
2016-12-22T04:46:30.548Z,6.17
2016-12-22T04:46:56.657Z,6.11
2016-12-22T04:47:22.782Z,6.02
2016-12-22T04:47:48.887Z,6.09
2016-12-22T04:48:15.004Z,6.09
2016-12-22T04:48:41.124Z,6.04
2016-12-22T04:49:07.239Z,6.04
2016-12-22T04:49:33.338Z,6.01
2016-12-22T04:49:59.466Z,6.02
2016-12-22T04:50:25.582Z,5.98
2016-12-22T04:50:51.687Z,6.05
2016-12-22T04:51:17.805Z,6.09
2016-12-22T04:51:43.915Z,6.09
2016-12-22T04:52:10.033Z,6.07
2016-12-22T04:52:36.143Z,6.12
2016-12-22T04:53:02.254Z,6.12
2016-12-22T04:53:28.404Z,6.07
2016-12-22T04:53:54.510Z,6.22
2016-12-22T04:54:20.613Z,6.28
2016-12-22T04:54:46.736Z,6.22
2016-12-22T04:55:12.851Z,6.19
2016-12-22T04:55:38.954Z,6.14
2016-12-22T04:56:05.073Z,6.22
2016-12-22T04:56:31.194Z,6.17
2016-12-22T04:56:57.297Z,6.2
2016-12-22T04:57:23.415Z,6.16
2016-12-22T04:57:49.517Z,6.17
2016-12-22T04:58:15.637Z,6.14
2016-12-22T04:58:41.751Z,6.22
2016-12-22T04:59:07.856Z,6.24
2016-12-22T04:59:33.979Z,6.2
2016-12-22T05:00:00.103Z,6.16
2016-12-22T05:00:26.203Z,6.26
2016-12-22T05:00:52.319Z,6.24
2016-12-22T05:01:18.442Z,6.14
2016-12-22T05:01:44.546Z,6.16
2016-12-22T05:02:10.658Z,6.26
2016-12-22T05:02:36.773Z,6.28
2016-12-22T05:03:02.881Z,6.16
2016-12-22T05:03:29.007Z,6.27
2016-12-22T05:03:55.107Z,6.28
2016-12-22T05:04:21.222Z,6.27
2016-12-22T05:04:47.342Z,6.19
2016-12-22T05:05:13.449Z,6.17
2016-12-22T05:05:39.566Z,6.17
2016-12-22T05:06:05.688Z,6.14
2016-12-22T05:06:31.792Z,6.08
2016-12-22T05:06:57.895Z,6.08
2016-12-22T05:07:24.025Z,6.05
2016-12-22T05:07:50.138Z,6.09
2016-12-22T05:08:16.247Z,6.04
2016-12-22T05:08:42.365Z,6.07
2016-12-22T05:09:08.472Z,6.07
2016-12-22T05:09:34.592Z,6.2
2016-12-22T05:10:00.703Z,6.17
2016-12-22T05:10:26.806Z,6.17
2016-12-22T05:10:52.926Z,6.2
2016-12-22T05:11:19.036Z,6.07
2016-12-22T05:11:45.146Z,6.05
2016-12-22T05:12:11.265Z,6.08
2016-12-22T05:12:37.379Z,6.12
2016-12-22T05:13:03.480Z,6.05
2016-12-22T05:13:29.596Z,6.11
2016-12-22T05:13:55.711Z,6.19
2016-12-22T05:14:21.819Z,6.12
2016-12-22T05:14:47.937Z,6.11
2016-12-22T05:15:14.034Z,6.07
2016-12-22T05:15:40.159Z,6.04
2016-12-22T05:16:06.268Z,6.02
2016-12-22T05:16:32.378Z,6.09
2016-12-22T05:16:58.496Z,6.09
2016-12-22T05:17:24.622Z,6.19
2016-12-22T05:17:50.726Z,6.12
2016-12-22T05:18:16.841Z,6.24
2016-12-22T05:18:42.965Z,6.22
2016-12-22T05:19:09.072Z,6.17
2016-12-22T05:19:35.181Z,6.12
2016-12-22T05:20:01.286Z,6.2
2016-12-22T05:20:27.409Z,6.17
2016-12-22T05:20:53.530Z,6.28
2016-12-22T05:21:19.630Z,6.11
2016-12-22T05:21:45.742Z,6.22
2016-12-22T05:22:11.857Z,6.19
2016-12-22T05:22:37.971Z,6.08
2016-12-22T05:23:04.084Z,6.11
2016-12-22T05:23:30.205Z,6.11
2016-12-22T05:23:56.308Z,6.05
2016-12-22T05:24:22.418Z,6.16
2016-12-22T05:24:48.540Z,6.11
2016-12-22T05:25:14.647Z,6.05
2016-12-22T05:25:40.766Z,6.07
2016-12-22T05:26:06.869Z,6.16
2016-12-22T05:26:32.977Z,6.14
2016-12-22T05:26:59.096Z,6.14
2016-12-22T05:27:25.209Z,6.14
2016-12-22T05:27:51.318Z,6.19
2016-12-22T05:28:17.442Z,6.2
2016-12-22T05:28:43.553Z,6.14
2016-12-22T05:29:09.662Z,6.08
2016-12-22T05:29:35.783Z,6.04
2016-12-22T05:30:01.898Z,6.12
2016-12-22T05:30:28.000Z,6.09
2016-12-22T05:30:54.120Z,6.09
2016-12-22T05:31:20.248Z,6.05
2016-12-22T05:31:46.345Z,5.93
2016-12-22T05:32:12.458Z,5.99
2016-12-22T05:32:38.583Z,5.93
2016-12-22T05:33:04.687Z,5.99
2016-12-22T05:33:30.801Z,5.94
2016-12-22T05:33:56.922Z,6.01
2016-12-22T05:34:23.028Z,6.09
2016-12-22T05:34:49.135Z,6.07
2016-12-22T05:35:15.256Z,6.01
2016-12-22T05:35:41.366Z,6.08
2016-12-22T05:36:07.477Z,6.04
2016-12-22T05:36:33.602Z,6.04
2016-12-22T05:36:59.704Z,6.08
2016-12-22T05:37:25.829Z,6.08
2016-12-22T05:37:51.937Z,5.99
2016-12-22T05:38:18.043Z,5.89
2016-12-22T05:38:44.164Z,5.91
2016-12-22T05:39:10.273Z,5.9
2016-12-22T05:39:36.378Z,5.9
2016-12-22T05:40:02.506Z,5.98
2016-12-22T05:40:28.621Z,5.97
2016-12-22T05:40:54.722Z,5.94
2016-12-22T05:41:20.840Z,6.01
2016-12-22T05:41:46.962Z,6.05
2016-12-22T05:42:13.069Z,6.05
2016-12-22T05:42:39.178Z,6.09
2016-12-22T05:43:05.278Z,6.09
2016-12-22T05:43:31.401Z,6.07
2016-12-22T05:43:57.516Z,6.02
2016-12-22T05:44:23.624Z,6.05
2016-12-22T05:44:49.738Z,5.98
2016-12-22T05:45:15.859Z,5.97
2016-12-22T05:45:41.962Z,5.89
2016-12-22T05:46:08.078Z,6.04
2016-12-22T05:46:34.197Z,6.05
2016-12-22T05:47:00.302Z,6.04
2016-12-22T05:47:26.419Z,5.93
2016-12-22T05:47:52.532Z,5.98
2016-12-22T05:48:18.650Z,6.02
2016-12-22T05:48:44.775Z,6.02